Terminal Aerodrome Forecast
Issued by NWS

Home | Current Version | Previous Version | Text Only | Print | Product List | Glossary On
Versions: 1 2 3 4 5 6 7 8 9 10 11 12 13 14 15 16 17 18 19 20 21 22 23 24 25 26 27 28 29 30 31 32 33 34 35 36 37 38 39 40 41 42 43 44 45 46 47 48 49 50
000
FTUS43 KMKX 261413 AAA
TAFUES
TAF AMD
KUES 261413Z 2614/2712 26013G24KT P6SM SKC
     FM261600 27017G31KT P6SM SCT050
      TEMPO 2617/2621 BKN050
     FM262300 26013G21KT P6SM SCT050 SCT150
     FM270100 27009KT P6SM SCT070 BKN150=

USA.gov is the U.S. government's official web portal to all federal, state and local government web resources and services.